Time;durP1;ratioP1;P1;durP2;ratioP2;P2;SDS_P1;SDS_P2;PMS_P1;PMS_P2;Temp;Humidity;BMP_temperature;BMP_pressure;BME280_temperature;BME280_humidity;BME280_pressure;Samples;Min_cycle;Max_cycle;Signal;HPM_P1;HPM_P2
2022/04/20 00:00:01;;;;;;;34.08;13.60;;;;;;;7.25;47.90;100769.21;1754464;81;26486;-62
2022/04/20 00:02:28;;;;;;;27.75;12.90;;;;;;;7.26;47.87;100769.58;1754232;81;25783;-61
2022/04/20 00:04:55;;;;;;;37.38;14.47;;;;;;;7.27;47.92;100770.80;1753958;81;27582;-62
2022/04/20 00:07:22;;;;;;;27.98;13.50;;;;;;;7.28;47.66;100764.48;1754168;80;25714;-61
2022/04/20 00:09:49;;;;;;;26.77;13.85;;;;;;;7.31;47.77;100772.75;1754315;81;25730;-61
2022/04/20 00:12:16;;;;;;;35.10;16.20;;;;;;;7.30;48.06;100767.06;1754329;80;25960;-61
2022/04/20 00:14:42;;;;;;;30.57;13.70;;;;;;;7.28;48.72;100760.97;1754275;81;25802;-61
2022/04/20 00:17:09;;;;;;;35.00;16.27;;;;;;;7.26;48.55;100760.22;1754049;81;28219;-61
2022/04/20 00:19:36;;;;;;;35.45;14.70;;;;;;;7.28;48.57;100766.31;1754296;81;25787;-61
2022/04/20 00:22:05;;;;;;;34.85;14.60;;;;;;;7.26;48.92;100771.77;1754292;81;25778;-61
2022/04/20 00:24:32;;;;;;;31.30;14.35;;;;;;;7.26;49.03;100768.25;1754553;81;25608;-61
2022/04/20 00:26:59;;;;;;;29.23;14.63;;;;;;;7.25;48.95;100770.08;1767632;81;25744;-61
2022/04/20 00:29:26;;;;;;;29.07;14.15;;;;;;;7.25;48.75;100767.88;1767696;81;26750;-61
2022/04/20 00:31:52;;;;;;;26.25;13.20;;;;;;;7.23;48.79;100768.00;1767809;80;25599;-61
2022/04/20 00:34:19;;;;;;;30.65;13.13;;;;;;;7.23;48.51;100772.02;1768122;81;25863;-61
2022/04/20 00:36:50;;;;;;;27.65;13.48;;;;;;;7.23;48.58;100769.80;1767768;80;25806;-61
2022/04/20 00:39:17;;;;;;;37.33;14.30;;;;;;;7.23;48.28;100776.48;1767791;80;25751;-61
2022/04/20 00:41:45;;;;;;;34.10;14.53;;;;;;;7.24;48.05;100775.06;1767652;81;27449;-61
2022/04/20 00:44:12;;;;;;;26.93;12.60;;;;;;;7.25;48.11;100782.13;1767763;80;25752;-61
2022/04/20 00:46:44;;;;;;;27.70;12.20;;;;;;;7.19;47.82;100776.73;1767672;81;25710;-61
2022/04/20 00:49:12;;;;;;;27.58;12.63;;;;;;;7.19;47.70;100780.75;1761272;80;25961;-61
2022/04/20 00:51:58;;;;;;;23.32;12.58;;;;;;;7.19;47.58;100781.22;1735533;81;25816;-61
2022/04/20 00:54:27;;;;;;;26.45;12.45;;;;;;;7.19;47.41;100783.43;1735243;82;27554;-61
2022/04/20 00:56:54;;;;;;;34.40;14.13;;;;;;;7.22;47.44;100785.52;1735346;81;25819;-61
2022/04/20 00:59:26;;;;;;;29.80;12.50;;;;;;;7.22;47.34;100786.85;1751535;81;25492;-61
2022/04/20 01:01:54;;;;;;;28.42;12.80;;;;;;;7.23;47.52;100787.20;1753434;81;27889;-61
2022/04/20 01:04:22;;;;;;;34.38;13.32;;;;;;;7.23;47.68;100788.53;1754654;81;25766;-61
2022/04/20 01:07:03;;;;;;;24.30;12.30;;;;;;;7.24;47.84;100790.24;1708768;83;27497;-61
2022/04/20 01:09:48;;;;;;;26.65;12.25;;;;;;;7.21;47.86;100785.98;1754201;81;25732;-61
2022/04/20 01:12:18;;;;;;;32.40;12.63;;;;;;;7.18;48.41;100788.41;1751884;81;25583;-61
2022/04/20 01:14:56;;;;;;;34.43;12.60;;;;;;;7.17;48.33;100786.70;1753324;81;25734;-61
2022/04/20 01:17:43;;;;;;;25.80;11.95;;;;;;;7.17;48.58;100787.19;1753380;81;25647;-61
2022/04/20 01:20:16;;;;;;;28.07;11.73;;;;;;;7.15;48.91;100785.95;1753610;81;27540;-61
2022/04/20 01:23:03;;;;;;;30.55;12.45;;;;;;;7.14;48.79;100786.07;1695947;83;25803;-61
2022/04/20 01:25:30;;;;;;;24.80;11.05;;;;;;;7.11;49.06;100781.81;1692595;83;25785;-61
2022/04/20 01:28:15;;;;;;;30.60;11.93;;;;;;;7.11;49.01;100783.14;1730398;81;26903;-61
2022/04/20 01:30:42;;;;;;;24.90;11.30;;;;;;;7.11;48.86;100783.14;1754023;81;25918;-61
2022/04/20 01:33:14;;;;;;;20.72;10.63;;;;;;;7.12;48.83;100786.20;1746950;81;27493;-61
2022/04/20 01:35:42;;;;;;;24.07;9.70;;;;;;;7.10;48.55;100784.11;1754113;81;26610;-61
2022/04/20 01:38:09;;;;;;;26.42;10.30;;;;;;;7.11;48.20;100785.82;1718186;83;25830;-61
2022/04/20 01:40:38;;;;;;;22.22;10.28;;;;;;;7.13;48.17;100789.21;1700364;84;25893;-61
2022/04/20 01:43:05;;;;;;;20.77;9.85;;;;;;;7.15;48.01;100780.59;1700246;84;25729;-61
2022/04/20 01:45:33;;;;;;;20.60;10.03;;;;;;;7.17;48.13;100781.84;1700158;84;27501;-61
2022/04/20 01:48:00;;;;;;;20.82;10.45;;;;;;;7.19;47.94;100787.91;1699396;84;25780;-61
2022/04/20 01:50:31;;;;;;;22.07;10.00;;;;;;;7.20;47.99;100782.93;1686109;83;25522;-61
2022/04/20 01:53:06;;;;;;;24.65;10.00;;;;;;;7.20;47.97;100778.92;1690561;84;27967;-61
2022/04/20 01:55:44;;;;;;;21.35;10.23;;;;;;;7.22;47.95;100779.66;1690404;84;25814;-61
2022/04/20 01:58:29;;;;;;;26.02;10.45;;;;;;;7.21;48.36;100777.95;1688450;83;27489;-61
2022/04/20 02:02:34;;;;;;;21.65;10.00;;;;;;;7.18;48.55;100782.19;1719461;82;25752;-61
2022/04/20 02:03:34;;;;;;;24.52;10.38;;;;;;;7.17;48.75;100781.84;1733548;82;25793;-62
2022/04/20 02:06:02;;;;;;;21.62;10.10;;;;;;;7.14;48.98;100781.56;1735994;82;26782;-62
2022/04/20 02:08:31;;;;;;;19.00;10.43;;;;;;;7.15;48.85;100777.08;1716405;82;25951;-61
2022/04/20 02:11:15;;;;;;;19.52;11.03;;;;;;;7.16;48.86;100778.30;1736741;82;27528;-62
2022/04/20 02:13:41;;;;;;;21.82;9.70;;;;;;;7.16;49.08;100776.95;1708461;82;25771;-62
2022/04/20 02:16:08;;;;;;;20.97;10.08;;;;;;;7.15;49.29;100781.94;1738153;81;25886;-62
2022/04/20 02:18:49;;;;;;;21.12;8.93;;;;;;;7.13;49.55;100781.69;1733592;82;25902;-62
2022/04/20 02:21:33;;;;;;;17.20;9.35;;;;;;;7.11;49.45;100783.14;1736878;81;25823;-61
2022/04/20 02:24:00;;;;;;;17.02;9.40;;;;;;;7.10;49.39;100783.23;1740564;82;27501;-61
2022/04/20 02:26:27;;;;;;;28.40;9.73;;;;;;;7.07;49.57;100780.31;1700652;84;25520;-61
2022/04/20 02:28:54;;;;;;;22.17;9.38;;;;;;;7.06;49.65;100779.94;1756080;81;25740;-60
2022/04/20 02:31:21;;;;;;;21.57;9.18;;;;;;;7.05;49.80;100776.89;1756583;81;26779;-61
2022/04/20 02:33:47;;;;;;;20.02;9.33;;;;;;;7.03;49.96;100780.19;1756349;80;25764;-61
2022/04/20 02:36:14;;;;;;;16.48;9.20;;;;;;;7.01;49.76;100781.61;1756454;81;27476;-61
2022/04/20 02:38:41;;;;;;;17.95;8.23;;;;;;;6.98;49.67;100774.30;1756126;81;27269;-61
2022/04/20 02:41:08;;;;;;;20.65;8.18;;;;;;;6.98;49.46;100779.66;1756474;81;25747;-61
2022/04/20 02:43:37;;;;;;;26.05;9.10;;;;;;;6.98;49.53;100780.98;1756323;81;26014;-61
2022/04/20 02:46:04;;;;;;;19.92;8.23;;;;;;;6.98;49.69;100779.66;1756100;81;25855;-61
2022/04/20 02:48:31;;;;;;;19.42;8.38;;;;;;;6.97;49.70;100782.83;1757970;80;27485;-61
2022/04/20 02:50:58;;;;;;;20.92;8.90;;;;;;;6.95;49.58;100778.56;1754927;80;25801;-61
2022/04/20 02:53:26;;;;;;;16.37;7.70;;;;;;;6.94;49.56;100778.19;1754028;81;25839;-61
2022/04/20 02:55:52;;;;;;;17.85;7.22;;;;;;;6.92;49.71;100777.44;1754176;81;25972;-61
2022/04/20 02:58:20;;;;;;;14.33;7.90;;;;;;;6.90;49.73;100780.23;1754322;81;25652;-61
2022/04/20 03:00:49;;;;;;;18.23;7.80;;;;;;;6.89;50.04;100781.20;1753643;81;27449;-61
2022/04/20 03:03:26;;;;;;;15.23;7.37;;;;;;;6.84;50.59;100778.86;1754008;81;25719;-61
2022/04/20 03:05:55;;;;;;;18.57;8.95;;;;;;;6.78;50.24;100777.95;1754582;81;25632;-61
2022/04/20 03:08:24;;;;;;;30.92;8.58;;;;;;;6.73;50.53;100778.28;1718416;83;25948;-61
2022/04/20 03:10:52;;;;;;;18.30;9.55;;;;;;;6.70;50.43;100785.67;1718410;83;25801;-60
2022/04/20 03:13:20;;;;;;;15.20;7.22;;;;;;;6.70;50.75;100781.20;1718354;82;27477;-61
2022/04/20 03:15:47;;;;;;;22.52;9.33;;;;;;;6.67;50.70;100786.75;1718250;83;25780;-61
2022/04/20 03:18:14;;;;;;;22.60;8.15;;;;;;;6.64;50.60;100791.47;1718377;83;25799;-61
2022/04/20 03:20:42;;;;;;;18.75;8.08;;;;;;;6.62;50.79;100788.91;1718299;83;26540;-61
2022/04/20 03:23:12;;;;;;;13.50;7.80;;;;;;;6.61;51.05;100787.20;1718475;83;25822;-61
2022/04/20 03:25:38;;;;;;;18.20;8.50;;;;;;;6.62;50.88;100786.70;1684459;84;28535;-61
2022/04/20 03:28:23;;;;;;;18.35;8.83;;;;;;;6.64;50.73;100782.11;1612274;88;25936;-61
2022/04/20 03:30:50;;;;;;;27.85;8.93;;;;;;;6.60;51.35;100784.16;1669222;84;25703;-61
2022/04/20 03:33:18;;;;;;;15.85;8.30;;;;;;;6.57;51.31;100785.23;1700313;84;25796;-61
2022/04/20 03:35:44;;;;;;;22.85;8.25;;;;;;;6.58;51.38;100788.28;1700395;84;25740;-60
2022/04/20 03:38:11;;;;;;;22.87;9.53;;;;;;;6.58;51.30;100792.30;1700262;84;28187;-60
2022/04/20 03:40:39;;;;;;;17.30;7.72;;;;;;;6.57;51.33;100791.05;1676194;84;25917;-61
2022/04/20 03:43:06;;;;;;;18.15;8.15;;;;;;;6.52;51.06;100789.20;1700172;84;25773;-61
2022/04/20 03:45:34;;;;;;;18.87;7.53;;;;;;;6.52;50.42;100792.70;1700069;84;25807;-61
2022/04/20 03:48:04;;;;;;;18.57;9.78;;;;;;;6.55;50.27;100793.84;1700245;84;25491;-61
2022/04/20 03:50:32;;;;;;;21.95;9.33;;;;;;;6.59;50.21;100790.46;1700183;84;27440;-61
2022/04/20 03:52:59;;;;;;;21.80;8.60;;;;;;;6.67;50.67;100793.93;1717814;83;25768;-61
2022/04/20 03:55:27;;;;;;;22.95;8.33;;;;;;;6.75;50.61;100803.59;1718323;83;25781;-61
2022/04/20 03:57:54;;;;;;;27.13;9.28;;;;;;;6.77;50.81;100805.64;1721304;82;25923;-61
2022/04/20 04:00:24;;;;;;;25.10;7.90;;;;;;;6.77;50.56;100801.63;1730875;82;25804;-61
2022/04/20 04:02:53;;;;;;;30.02;8.15;;;;;;;6.80;50.42;100806.77;1725599;82;27483;-62
2022/04/20 04:05:28;;;;;;;19.37;8.35;;;;;;;6.83;50.71;100811.91;1715925;83;26063;-61
2022/04/20 04:07:56;;;;;;;19.85;6.90;;;;;;;6.80;50.95;100815.29;1716275;83;26369;-62
2022/04/20 04:10:25;;;;;;;24.45;8.15;;;;;;;6.82;50.89;100814.67;1716777;83;26585;-61
2022/04/20 04:12:55;;;;;;;17.55;8.00;;;;;;;6.84;50.61;100818.09;1716899;83;26463;-62
2022/04/20 04:15:23;;;;;;;22.67;8.38;;;;;;;6.88;50.66;100823.61;1716957;83;28438;-61
2022/04/20 04:17:54;;;;;;;24.30;10.00;;;;;;;6.92;50.67;100815.72;1716482;83;25810;-61
2022/04/20 04:20:19;;;;;;;28.62;8.28;;;;;;;6.95;50.57;100813.33;1716437;83;25818;-61
2022/04/20 04:22:50;;;;;;;27.20;8.25;;;;;;;6.96;50.49;100815.01;1706823;83;25859;-61
2022/04/20 04:25:27;;;;;;;24.37;7.80;;;;;;;7.03;50.43;100818.97;1699715;83;25764;-60
2022/04/20 04:27:54;;;;;;;26.15;8.80;;;;;;;7.10;50.13;100826.04;1718425;83;27729;-61
2022/04/20 04:30:22;;;;;;;30.37;9.23;;;;;;;7.15;49.72;100824.73;1718187;82;25513;-60
2022/04/20 04:32:53;;;;;;;22.13;8.40;;;;;;;7.23;49.67;100820.64;1717567;83;25769;-61
2022/04/20 04:35:21;;;;;;;25.48;8.70;;;;;;;7.29;49.11;100828.23;1718271;83;25773;-61
2022/04/20 04:37:48;;;;;;;28.15;8.43;;;;;;;7.32;48.69;100822.17;1718722;83;25791;-60
2022/04/20 04:40:18;;;;;;;24.47;8.45;;;;;;;7.41;48.38;100829.14;1718280;83;29641;-61
2022/04/20 04:42:45;;;;;;;18.20;7.92;;;;;;;7.47;48.38;100828.20;1718237;83;25752;-61
2022/04/20 04:50:46;;;;;;;21.50;9.70;;;;;;;7.66;47.80;100833.52;1707911;83;25749;-59
2022/04/20 04:53:14;;;;;;;39.50;17.32;;;;;;;7.71;47.72;100831.84;1741075;81;27534;-61
2022/04/20 04:55:41;;;;;;;27.95;13.28;;;;;;;7.79;47.95;100827.59;1741160;81;25463;-61
2022/04/20 04:58:08;;;;;;;30.12;11.20;;;;;;;7.82;47.92;100839.42;1740779;82;25759;-61
2022/04/20 05:00:35;;;;;;;47.10;16.52;;;;;;;7.87;47.95;100839.06;1740932;81;27841;-61
2022/04/20 05:03:09;;;;;;;93.92;31.23;;;;;;;7.98;47.93;100840.91;1740321;81;25797;-61
2022/04/20 05:05:37;;;;;;;45.12;17.25;;;;;;;8.07;47.60;100838.03;1741044;82;28325;-61
2022/04/20 05:08:06;;;;;;;34.67;12.85;;;;;;;8.17;47.18;100841.67;1740727;82;25736;-60
2022/04/20 05:10:33;;;;;;;30.65;11.60;;;;;;;8.25;46.68;100841.94;1740877;82;26579;-61
2022/04/20 05:13:01;;;;;;;51.73;17.30;;;;;;;8.35;46.67;100850.13;1740662;82;25792;-60
2022/04/20 05:15:28;;;;;;;88.27;28.60;;;;;;;8.47;45.85;100847.00;1740860;82;25939;-60
2022/04/20 05:17:56;;;;;;;81.02;22.20;;;;;;;8.57;45.71;100844.44;1740813;82;28409;-60
2022/04/20 05:20:23;;;;;;;33.88;10.98;;;;;;;8.66;44.91;100845.55;1740725;81;26403;-61
2022/04/20 05:22:51;;;;;;;31.95;10.75;;;;;;;8.71;44.56;100845.55;1740448;82;25706;-61
2022/04/20 05:25:19;;;;;;;29.98;10.35;;;;;;;8.76;44.75;100848.70;1740146;82;25813;-61
2022/04/20 05:27:46;;;;;;;25.90;10.23;;;;;;;8.89;44.79;100843.70;1740923;81;25506;-61
2022/04/20 05:30:14;;;;;;;21.57;9.83;;;;;;;9.02;44.13;100846.25;1741050;81;27714;-60
2022/04/20 05:32:42;;;;;;;29.35;10.13;;;;;;;9.14;43.82;100853.32;1705528;84;25887;-61
2022/04/20 05:35:17;;;;;;;44.80;9.43;;;;;;;9.24;43.08;100860.13;1740681;81;26208;-61
2022/04/20 05:43:04;;;;;;;23.75;8.45;;;;;;;9.43;41.91;100857.27;1740927;82;27440;-61
2022/04/20 05:45:32;;;;;;;19.52;7.12;;;;;;;9.46;41.36;100859.70;1705203;84;25736;-61
2022/04/20 05:48:17;;;;;;;18.40;6.65;;;;;;;9.46;41.48;100859.20;1740957;82;25716;-61
2022/04/20 05:50:46;;;;;;;27.77;7.35;;;;;;;9.49;41.29;100861.65;1710207;83;26473;-61
2022/04/20 05:53:13;;;;;;;20.20;8.10;;;;;;;9.53;41.02;100859.05;1749038;81;25774;-61
2022/04/20 05:55:40;;;;;;;23.25;7.15;;;;;;;9.60;41.01;100865.25;1749044;82;27612;-60
2022/04/20 05:58:07;;;;;;;19.12;6.20;;;;;;;9.63;40.85;100863.19;1748802;82;25802;-61
2022/04/20 06:00:35;;;;;;;23.55;6.60;;;;;;;9.67;40.96;100857.91;1748625;82;25752;-61
2022/04/20 06:03:07;;;;;;;11.20;5.92;;;;;;;9.70;40.15;100863.03;1721203;81;25886;-61
2022/04/20 06:05:34;;;;;;;22.82;7.28;;;;;;;9.75;40.31;100864.47;1748883;82;25871;-61
2022/04/20 06:08:07;;;;;;;22.85;7.58;;;;;;;9.81;40.42;100860.78;1709898;83;27519;-61
2022/04/20 06:10:55;;;;;;;37.23;7.30;;;;;;;9.92;40.50;100867.92;1702644;84;25888;-61
2022/04/20 06:13:22;;;;;;;24.80;7.65;;;;;;;10.02;40.57;100859.45;1679480;85;25745;-61
2022/04/20 06:15:57;;;;;;;19.52;7.47;;;;;;;10.15;39.99;100867.31;1686464;84;25864;-61
2022/04/20 06:18:28;;;;;;;18.12;7.80;;;;;;;10.24;39.53;100858.97;1699050;84;26193;-61
2022/04/20 06:21:08;;;;;;;19.62;8.58;;;;;;;10.31;39.21;100864.65;1664409;84;27494;-61
2022/04/20 06:23:40;;;;;;;17.25;7.62;;;;;;;10.40;38.89;100863.89;1691492;84;25480;-61
2022/04/20 06:26:20;;;;;;;26.95;9.30;;;;;;;10.48;39.00;100868.61;1643411;84;25539;-61
2022/04/20 06:28:59;;;;;;;27.13;8.75;;;;;;;10.58;38.87;100862.80;1699774;84;26826;-60
2022/04/20 06:31:45;;;;;;;19.55;7.08;;;;;;;10.70;38.32;100866.24;1641303;87;25844;-61
2022/04/20 06:34:13;;;;;;;18.82;6.75;;;;;;;10.82;37.77;100864.81;1679089;83;27556;-61
2022/04/20 06:36:44;;;;;;;12.65;4.92;;;;;;;10.90;37.86;100863.13;1698233;84;25822;-61
2022/04/20 06:39:13;;;;;;;10.70;4.85;;;;;;;10.93;36.84;100873.63;1695966;84;25813;-61
2022/04/20 06:41:42;;;;;;;12.93;3.83;;;;;;;10.81;37.00;100866.64;1697466;84;25822;-61
2022/04/20 06:44:28;;;;;;;5.50;3.05;;;;;;;10.84;37.22;100866.88;1699642;84;25776;-61
2022/04/20 06:46:56;;;;;;;8.43;3.17;;;;;;;10.97;37.38;100872.86;1695043;84;27722;-61
2022/04/20 06:49:25;;;;;;;10.45;3.55;;;;;;;10.95;36.90;100864.94;1695358;84;25982;-61
2022/04/20 07:00:25;;;;;;;9.00;3.95;;;;;;;11.43;36.74;100871.91;1690139;84;27468;-61
2022/04/20 07:03:08;;;;;;;14.75;4.75;;;;;;;11.53;36.53;100876.81;1690384;84;25472;-60
2022/04/20 07:05:40;;;;;;;10.88;4.85;;;;;;;11.41;37.09;100864.48;1687550;84;25758;-60
2022/04/20 07:08:27;;;;;;;12.60;5.28;;;;;;;11.38;37.42;100868.31;1690374;84;25904;-60
2022/04/20 07:10:55;;;;;;;7.12;4.72;;;;;;;11.30;37.75;100869.98;1688208;84;25529;-60
2022/04/20 07:13:23;;;;;;;10.60;4.33;;;;;;;11.16;37.97;100867.19;1690107;84;28198;-60
2022/04/20 07:15:51;;;;;;;21.17;5.70;;;;;;;11.11;38.09;100870.29;1690083;84;25958;-60
2022/04/20 07:18:19;;;;;;;13.20;5.67;;;;;;;11.12;38.27;100872.00;1690283;84;25681;-61
2022/04/20 07:20:51;;;;;;;11.65;6.58;;;;;;;11.11;38.36;100877.02;1688124;84;26579;-60
2022/04/20 07:23:20;;;;;;;49.80;8.25;;;;;;;11.06;38.60;100877.43;1691285;84;25799;-61
2022/04/20 07:25:52;;;;;;;10.45;5.33;;;;;;;11.07;38.75;100876.45;1700519;84;28448;-61
2022/04/20 07:28:27;;;;;;;13.30;6.00;;;;;;;11.05;38.57;100875.72;1661290;84;25869;-60
2022/04/20 07:31:07;;;;;;;17.42;5.55;;;;;;;10.94;38.89;100865.05;1699179;84;25760;-61
2022/04/20 07:33:52;;;;;;;14.47;5.22;;;;;;;11.06;38.88;100873.39;1709131;83;26741;-61
2022/04/20 07:36:39;;;;;;;16.42;5.62;;;;;;;11.03;38.77;100869.62;1678034;83;25584;-61
2022/04/20 07:39:14;;;;;;;12.05;5.05;;;;;;;11.01;38.94;100873.44;1711054;82;27999;-61
2022/04/20 07:41:57;;;;;;;19.27;6.05;;;;;;;11.15;39.10;100868.17;1656588;86;26684;-62
2022/04/20 07:44:35;;;;;;;16.35;5.53;;;;;;;11.22;38.78;100862.11;1691813;83;25743;-61
2022/04/20 07:47:07;;;;;;;11.57;6.12;;;;;;;11.11;38.70;100864.91;1711282;83;25883;-60
2022/04/20 07:52:23;;;;;;;15.05;5.47;;;;;;;11.27;39.08;100873.30;1753927;81;27520;-61
2022/04/20 07:55:10;;;;;;;11.90;5.62;;;;;;;11.45;39.14;100868.58;1755820;80;25518;-61
2022/04/20 07:57:50;;;;;;;11.85;5.40;;;;;;;11.50;38.74;100871.73;1763956;81;25810;-61
2022/04/20 08:00:34;;;;;;;11.93;5.25;;;;;;;11.59;38.61;100864.16;1707688;84;25776;-61
2022/04/20 08:03:20;;;;;;;11.10;5.30;;;;;;;11.65;38.74;100860.53;1749076;81;25517;-61
2022/04/20 08:05:51;;;;;;;10.85;4.55;;;;;;;11.75;38.48;100865.42;1718175;83;27534;-61
2022/04/20 08:08:20;;;;;;;12.05;4.40;;;;;;;11.80;38.43;100869.05;1718523;83;26893;-61
2022/04/20 08:10:48;;;;;;;7.72;3.85;;;;;;;11.75;37.93;100866.78;1718409;83;25763;-61
2022/04/20 08:16:02;;;;;;;5.00;3.75;;;;;;;11.89;38.11;100857.41;1718372;83;25801;-61
2022/04/20 08:18:31;;;;;;;9.93;4.55;;;;;;;12.01;37.69;100850.05;1717399;83;28685;-60
2022/04/20 08:20:59;;;;;;;16.15;4.78;;;;;;;12.15;37.67;100846.89;1671717;83;27317;-60
2022/04/20 08:23:32;;;;;;;7.67;4.45;;;;;;;12.30;37.37;100851.85;1718682;83;25788;-61
2022/04/20 08:25:58;;;;;;;7.03;4.20;;;;;;;12.32;36.93;100850.70;1683867;84;25813;-60
2022/04/20 08:28:24;;;;;;;7.75;4.35;;;;;;;12.25;36.88;100848.24;1712388;83;25764;-60
2022/04/20 08:30:51;;;;;;;9.95;3.80;;;;;;;12.20;36.85;100845.98;1712448;83;28275;-60
2022/04/20 08:33:18;;;;;;;11.22;4.50;;;;;;;12.11;36.97;100842.80;1703635;83;25723;-61
2022/04/20 08:35:45;;;;;;;11.18;4.22;;;;;;;12.01;37.05;100844.66;1683699;85;25845;-60
2022/04/20 08:38:13;;;;;;;15.10;4.97;;;;;;;12.07;37.36;100844.07;1683627;85;26485;-60
2022/04/20 08:40:40;;;;;;;8.38;4.67;;;;;;;12.08;37.01;100837.69;1685396;83;25868;-61
2022/04/20 08:43:07;;;;;;;6.62;3.62;;;;;;;11.82;36.43;100843.64;1699527;83;27513;-61
2022/04/20 08:45:37;;;;;;;6.90;4.15;;;;;;;11.77;37.07;100839.19;1709630;83;26532;-60
2022/04/20 08:48:04;;;;;;;12.85;4.80;;;;;;;11.84;37.30;100840.80;1707058;83;25720;-61
2022/04/20 08:50:32;;;;;;;7.85;4.05;;;;;;;11.95;37.37;100847.91;1709859;83;25807;-61
2022/04/20 08:52:58;;;;;;;13.68;5.58;;;;;;;12.00;37.06;100848.34;1713148;83;25520;-61
2022/04/20 08:55:26;;;;;;;13.25;7.25;;;;;;;11.92;37.46;100844.14;1712992;83;28172;-61
2022/04/20 08:57:54;;;;;;;11.68;5.10;;;;;;;11.97;37.97;100836.48;1702149;83;25855;-60
2022/04/20 09:00:26;;;;;;;9.98;5.37;;;;;;;12.14;37.92;100835.78;1698213;84;25754;-61
2022/04/20 09:02:57;;;;;;;12.73;7.15;;;;;;;12.28;37.61;100837.66;1696830;84;26443;-60
2022/04/20 09:05:28;;;;;;;8.78;4.75;;;;;;;12.41;37.66;100837.33;1691355;84;25807;-61
2022/04/20 09:07:56;;;;;;;6.70;4.20;;;;;;;12.52;38.23;100832.60;1691082;84;27623;-61
2022/04/20 09:10:24;;;;;;;14.55;5.15;;;;;;;12.63;38.56;100832.94;1691625;84;25891;-61
2022/04/20 09:13:07;;;;;;;9.15;4.40;;;;;;;12.64;38.40;100835.12;1691305;84;25782;-61
2022/04/20 09:15:36;;;;;;;6.93;4.97;;;;;;;12.66;38.10;100831.27;1704304;83;25859;-60
2022/04/20 09:18:05;;;;;;;8.55;4.62;;;;;;;12.65;38.54;100835.48;1713545;83;25812;-61
2022/04/20 09:20:34;;;;;;;10.10;4.72;;;;;;;12.64;38.31;100840.52;1708785;83;28211;-61
2022/04/20 09:23:12;;;;;;;10.40;4.55;;;;;;;12.64;38.38;100831.91;1704875;84;25835;-61
2022/04/20 09:25:43;;;;;;;14.90;5.03;;;;;;;12.59;38.30;100834.73;1708597;83;25652;-60
2022/04/20 09:28:09;;;;;;;7.65;4.53;;;;;;;12.53;38.28;100828.91;1709335;83;25821;-60
2022/04/20 09:30:41;;;;;;;16.05;4.62;;;;;;;12.43;38.19;100833.48;1722315;82;26093;-61
2022/04/20 09:33:10;;;;;;;12.73;5.10;;;;;;;12.44;38.32;100829.79;1745344;81;28194;-60
2022/04/20 09:35:50;;;;;;;14.80;5.28;;;;;;;12.50;38.33;100827.88;1756552;81;25887;-62
2022/04/20 09:38:21;;;;;;;10.93;5.00;;;;;;;12.53;37.94;100828.91;1749091;81;25758;-60
2022/04/20 09:41:09;;;;;;;24.45;5.12;;;;;;;12.66;37.99;100818.29;1741175;81;26662;-60
2022/04/20 09:43:38;;;;;;;16.90;7.72;;;;;;;12.79;37.81;100817.43;1705327;84;25810;-60
2022/04/20 09:49:11;;;;;;;14.73;5.00;;;;;;;12.96;37.20;100817.63;1706756;82;25812;-60
2022/04/20 09:51:42;;;;;;;9.83;4.75;;;;;;;12.81;37.16;100815.44;1692444;83;25828;-60
2022/04/20 09:54:29;;;;;;;12.10;5.17;;;;;;;12.89;36.89;100814.70;1683701;85;25942;-60
2022/04/20 09:57:12;;;;;;;11.05;5.17;;;;;;;13.20;37.23;100817.57;1719053;83;25793;-61
2022/04/20 10:00:00;;;;;;;15.88;5.60;;;;;;;14.03;35.42;100805.67;1748315;80;27675;-60
2022/04/20 10:02:29;;;;;;;11.43;4.70;;;;;;;14.04;35.28;100809.55;1748030;82;25786;-61
2022/04/20 10:04:57;;;;;;;12.13;5.40;;;;;;;13.91;35.62;100809.97;1748698;82;25830;-61
2022/04/20 10:07:24;;;;;;;10.35;4.72;;;;;;;13.72;35.28;100814.20;1749118;80;25773;-61
2022/04/20 10:09:52;;;;;;;14.83;5.58;;;;;;;13.53;35.60;100809.34;1748752;81;25707;-61
2022/04/20 10:12:19;;;;;;;19.60;5.33;;;;;;;13.37;36.05;100810.47;1748999;80;27360;-61
2022/04/20 10:17:44;;;;;;;13.30;5.28;;;;;;;13.17;36.24;100808.41;1783171;80;25834;-61
2022/04/20 10:20:13;;;;;;;12.98;5.67;;;;;;;13.07;36.47;100803.92;1782608;80;26496;-62
2022/04/20 10:22:42;;;;;;;10.53;5.33;;;;;;;13.06;36.41;100810.32;1771058;80;25813;-61
2022/04/20 10:25:12;;;;;;;11.43;5.30;;;;;;;13.11;36.15;100801.77;1741261;82;27548;-61
2022/04/20 10:28:03;;;;;;;10.25;5.25;;;;;;;13.37;36.33;100796.47;1746909;82;25760;-61
2022/04/20 10:30:41;;;;;;;10.13;5.50;;;;;;;13.47;35.70;100799.12;1748697;80;25825;-60
2022/04/20 10:33:23;;;;;;;9.25;4.62;;;;;;;13.45;35.53;100793.88;1748640;81;25836;-59
2022/04/20 10:35:59;;;;;;;8.98;4.92;;;;;;;13.73;35.55;100793.78;1748598;82;25641;-61
2022/04/20 10:38:31;;;;;;;12.43;5.20;;;;;;;14.06;34.81;100788.61;1748661;81;28341;-61
2022/04/20 10:41:19;;;;;;;11.25;6.00;;;;;;;14.30;34.50;100784.88;1753709;80;25803;-61
2022/04/20 10:43:51;;;;;;;11.28;5.30;;;;;;;14.43;34.68;100781.23;1767020;81;25739;-61
2022/04/20 10:46:19;;;;;;;14.55;5.40;;;;;;;14.59;34.22;100776.38;1747044;79;25894;-61
2022/04/20 10:49:02;;;;;;;12.45;5.08;;;;;;;14.73;33.53;100774.12;1719275;82;25752;-60
2022/04/20 10:51:46;;;;;;;10.58;4.87;;;;;;;14.73;33.95;100770.05;1703274;82;27636;-60
2022/04/20 10:54:29;;;;;;;11.95;5.40;;;;;;;14.83;34.02;100761.30;1729772;82;25828;-61
2022/04/20 10:57:09;;;;;;;10.98;5.17;;;;;;;14.88;33.86;100767.05;1729501;81;25768;-61
2022/04/20 10:59:39;;;;;;;7.40;5.45;;;;;;;15.03;33.33;100765.91;1748101;82;25781;-61
2022/04/20 11:02:09;;;;;;;15.63;5.37;;;;;;;14.98;33.42;100762.83;1748723;80;25963;-61
2022/04/20 11:04:44;;;;;;;10.90;4.90;;;;;;;15.18;32.64;100760.70;1749078;82;28191;-61
2022/04/20 11:07:22;;;;;;;10.50;4.53;;;;;;;15.40;32.87;100748.36;1712585;83;25996;-61
2022/04/20 11:09:58;;;;;;;9.05;5.50;;;;;;;15.79;32.73;100742.75;1748802;81;25498;-61
2022/04/20 11:21:10;;;;;;;11.12;4.33;;;;;;;18.01;30.64;100733.06;1739705;80;25874;-61
2022/04/20 11:24:08;;;;;;;14.95;5.00;;;;;;;18.34;29.86;100725.05;1738516;82;25819;-61
2022/04/20 11:26:51;;;;;;;14.15;4.75;;;;;;;18.49;28.68;100725.88;1747259;82;25947;-62
2022/04/20 11:29:23;;;;;;;;;;;;;;;19.23;27.26;100724.86;1750279;82;25659;-62
2022/04/20 11:31:53;;;;;;;7.15;4.08;;;;;;;19.83;25.36;100709.52;1747282;82;27530;-62
2022/04/20 11:34:21;;;;;;;9.65;4.35;;;;;;;20.07;25.67;100717.47;1747622;82;25474;-62
2022/04/20 11:36:53;;;;;;;7.25;4.15;;;;;;;20.09;25.29;100711.30;1747354;82;25743;-62
2022/04/20 11:39:23;;;;;;;6.83;3.83;;;;;;;20.60;25.77;100705.98;1747981;82;25823;-62
2022/04/20 11:41:59;;;;;;;12.05;4.60;;;;;;;21.47;24.92;100691.11;1747281;82;25728;-62
2022/04/20 11:44:36;;;;;;;6.75;3.80;;;;;;;22.24;24.41;100693.89;1735396;80;27499;-61
2022/04/20 11:47:08;;;;;;;6.97;3.65;;;;;;;22.93;23.06;100692.34;1718956;82;26085;-62
2022/04/20 11:49:45;;;;;;;11.15;4.17;;;;;;;23.34;21.32;100687.96;1723078;82;25807;-62
2022/04/20 11:52:17;;;;;;;6.10;3.92;;;;;;;23.42;20.50;100690.42;1732104;82;25835;-62
2022/04/20 11:54:46;;;;;;;8.00;3.42;;;;;;;23.61;20.11;100681.73;1735769;82;25657;-62
2022/04/20 11:57:18;;;;;;;6.37;3.98;;;;;;;23.64;20.59;100676.31;1734600;81;27472;-61
2022/04/20 11:59:48;;;;;;;10.30;3.58;;;;;;;24.03;21.02;100675.09;1718199;83;25853;-62
2022/04/20 12:02:17;;;;;;;6.55;3.33;;;;;;;24.65;20.71;100667.80;1718221;83;25801;-62
2022/04/20 12:04:50;;;;;;;7.33;3.40;;;;;;;25.10;19.80;100671.48;1718438;83;25950;-62
2022/04/20 12:07:16;;;;;;;6.42;3.80;;;;;;;25.08;19.84;100672.27;1717869;83;26469;-62
2022/04/20 12:09:47;;;;;;;6.62;3.75;;;;;;;24.80;19.59;100663.26;1718333;83;28148;-62
2022/04/20 12:12:15;;;;;;;5.92;3.40;;;;;;;24.13;19.34;100666.86;1718075;83;25897;-62
2022/04/20 12:14:42;;;;;;;10.48;4.30;;;;;;;23.41;19.34;100672.27;1718423;83;25812;-62
2022/04/20 12:17:22;;;;;;;8.85;3.42;;;;;;;22.46;20.13;100662.41;1717889;83;26725;-62
2022/04/20 12:19:53;;;;;;;4.95;3.62;;;;;;;22.05;20.05;100668.53;1718158;83;25712;-62